createdAt,value
2023-03-06T00:00:48.903Z,66.69
2023-03-06T00:03:22.878Z,66.68
2023-03-06T00:05:53.630Z,66.71
2023-03-06T00:08:24.887Z,66.69
2023-03-06T00:10:54.546Z,66.67
2023-03-06T00:13:25.919Z,66.54
2023-03-06T00:16:00.055Z,66.56
2023-03-06T00:18:31.228Z,66.62
2023-03-06T00:21:02.610Z,66.72
2023-03-06T00:23:33.270Z,66.70
2023-03-06T00:26:06.488Z,66.60
2023-03-06T00:28:37.677Z,66.63
2023-03-06T00:31:08.571Z,66.68
2023-03-06T00:33:39.365Z,66.83
2023-03-06T00:36:10.778Z,66.79
2023-03-06T00:38:41.558Z,66.96
2023-03-06T00:41:13.224Z,67.02
2023-03-06T00:43:43.848Z,67.01
2023-03-06T00:46:14.619Z,67.13
2023-03-06T00:48:45.356Z,67.23
2023-03-06T00:51:16.009Z,67.25
2023-03-06T00:53:46.741Z,67.13
2023-03-06T00:56:19.840Z,67.21
2023-03-06T00:58:50.620Z,67.13
2023-03-06T01:01:21.402Z,67.35
2023-03-06T01:03:52.049Z,67.33
2023-03-06T01:06:22.857Z,67.32
2023-03-06T01:08:53.474Z,67.39
2023-03-06T01:11:24.376Z,67.46
2023-03-06T01:13:55.102Z,67.50
2023-03-06T01:16:25.808Z,67.57
2023-03-06T01:18:56.472Z,67.48
2023-03-06T01:21:28.064Z,67.45
2023-03-06T01:23:58.772Z,67.57
2023-03-06T01:26:29.478Z,67.61
2023-03-06T01:29:00.161Z,67.62
2023-03-06T01:31:30.898Z,67.61
2023-03-06T01:34:01.902Z,67.83
2023-03-06T01:36:32.594Z,67.89
2023-03-06T01:39:03.762Z,67.90
2023-03-06T01:41:32.962Z,67.83
2023-03-06T01:44:04.646Z,67.95
2023-03-06T01:46:37.706Z,68.02
2023-03-06T01:49:15.139Z,67.99
2023-03-06T01:51:52.083Z,68.12
2023-03-06T01:54:26.898Z,68.10
2023-03-06T01:57:03.641Z,68.09
2023-03-06T01:59:36.800Z,68.20
2023-03-06T02:02:09.473Z,68.29
2023-03-06T02:04:41.643Z,68.30
2023-03-06T02:07:14.264Z,68.37
2023-03-06T02:09:45.031Z,68.48
2023-03-06T02:12:18.833Z,68.53
2023-03-06T02:14:50.312Z,68.52
2023-03-06T02:17:22.412Z,68.57
2023-03-06T02:20:00.556Z,68.70
2023-03-06T02:22:37.542Z,68.85
2023-03-06T02:25:15.235Z,68.84
2023-03-06T02:27:46.000Z,68.75
2023-03-06T02:30:19.077Z,68.91
2023-03-06T02:32:56.861Z,69.09
2023-03-06T02:35:29.001Z,69.01
2023-03-06T02:38:04.499Z,69.11
2023-03-06T02:40:35.382Z,69.34
2023-03-06T02:43:06.148Z,69.33
2023-03-06T02:45:39.548Z,69.37
2023-03-06T02:48:10.254Z,69.41
2023-03-06T02:50:41.398Z,69.37
2023-03-06T02:53:11.212Z,69.42
2023-03-06T02:55:41.938Z,69.37
2023-03-06T02:58:12.691Z,69.37
2023-03-06T03:00:43.349Z,69.39
2023-03-06T03:03:14.229Z,69.26
2023-03-06T03:05:44.871Z,69.52
2023-03-06T03:08:15.600Z,69.25
2023-03-06T03:10:46.253Z,69.38
2023-03-06T03:13:16.992Z,69.53
2023-03-06T03:15:57.073Z,69.59
2023-03-06T03:18:28.177Z,69.64
2023-03-06T03:20:57.505Z,69.58
2023-03-06T03:23:28.281Z,69.69
2023-03-06T03:26:08.096Z,69.77
2023-03-06T03:28:39.161Z,69.92
2023-03-06T03:31:11.123Z,69.96
2023-03-06T03:33:42.408Z,70.03
2023-03-06T03:36:11.516Z,70.09
2023-03-06T03:38:42.280Z,70.13
2023-03-06T03:41:13.051Z,70.23
2023-03-06T03:43:43.908Z,70.17
2023-03-06T03:46:14.617Z,70.22
2023-03-06T03:48:45.323Z,70.43
2023-03-06T03:51:16.022Z,70.26
2023-03-06T03:53:46.774Z,70.41
2023-03-06T03:56:17.518Z,70.56
2023-03-06T03:58:48.221Z,70.40
2023-03-06T04:01:18.920Z,70.47
2023-03-06T04:03:49.636Z,70.36
2023-03-06T04:06:20.607Z,70.41
2023-03-06T04:08:51.333Z,70.20
2023-03-06T04:11:22.011Z,70.27
2023-03-06T04:13:52.695Z,70.28
2023-03-06T04:16:23.730Z,70.28
2023-03-06T04:18:54.451Z,70.13
2023-03-06T04:21:25.206Z,70.04
2023-03-06T04:23:56.076Z,69.96
2023-03-06T04:26:26.968Z,69.93
2023-03-06T04:28:57.634Z,69.84
2023-03-06T04:31:28.284Z,69.81
2023-03-06T04:33:58.977Z,69.72
2023-03-06T04:36:33.690Z,69.61
2023-03-06T04:39:05.512Z,69.68
2023-03-06T04:41:36.163Z,69.83
2023-03-06T04:44:07.704Z,70.06
2023-03-06T04:46:38.545Z,70.12
2023-03-06T04:49:09.253Z,70.11
2023-03-06T04:51:39.892Z,70.08
2023-03-06T04:54:10.587Z,70.16
2023-03-06T04:56:41.549Z,70.21
2023-03-06T04:59:12.230Z,70.03
2023-03-06T05:01:42.951Z,69.92
2023-03-06T05:04:13.569Z,70.09
2023-03-06T05:06:44.320Z,70.14
2023-03-06T05:09:15.043Z,70.04
2023-03-06T05:11:45.686Z,70.27
2023-03-06T05:14:16.419Z,70.20
2023-03-06T05:16:47.171Z,70.29
2023-03-06T05:19:17.882Z,70.55
2023-03-06T05:21:48.514Z,70.48
2023-03-06T05:24:19.574Z,70.47
2023-03-06T05:26:48.797Z,70.44
2023-03-06T05:29:19.471Z,70.67
2023-03-06T05:31:50.193Z,70.76
2023-03-06T05:34:20.884Z,71.31
2023-03-06T05:36:51.557Z,71.40
2023-03-06T05:39:22.261Z,71.27
2023-03-06T05:41:52.867Z,71.08
2023-03-06T05:44:23.510Z,71.15
2023-03-06T05:46:54.105Z,71.00
2023-03-06T05:49:24.794Z,71.17
2023-03-06T05:51:55.451Z,71.27
2023-03-06T05:54:26.132Z,71.30
2023-03-06T05:56:56.929Z,71.64
2023-03-06T05:59:28.163Z,72.00
2023-03-06T06:01:59.900Z,71.84
2023-03-06T06:04:30.687Z,72.07
2023-03-06T06:07:01.937Z,72.46
2023-03-06T06:09:32.613Z,72.66
2023-03-06T06:12:04.634Z,72.38
2023-03-06T06:14:36.409Z,72.49
2023-03-06T06:17:07.219Z,72.52
2023-03-06T06:19:38.540Z,72.63
2023-03-06T06:22:09.742Z,72.67
2023-03-06T06:24:38.948Z,73.08
2023-03-06T06:27:10.090Z,72.80
2023-03-06T06:29:39.173Z,73.05
2023-03-06T06:32:09.919Z,72.89
2023-03-06T06:34:40.557Z,72.70
2023-03-06T06:37:13.125Z,72.56
2023-03-06T06:39:43.930Z,72.66
2023-03-06T06:42:30.997Z,72.61
2023-03-06T06:45:04.454Z,72.56
2023-03-06T06:47:35.169Z,72.43
2023-03-06T06:50:15.678Z,72.43
2023-03-06T06:52:46.400Z,72.20
2023-03-06T06:55:17.658Z,72.02
2023-03-06T06:57:48.366Z,72.18
2023-03-06T07:00:20.781Z,72.39
2023-03-06T07:02:51.478Z,72.40
2023-03-06T07:05:22.272Z,72.84
2023-03-06T07:07:53.053Z,72.90
2023-03-06T07:10:24.592Z,72.77
2023-03-06T07:12:55.247Z,72.62
2023-03-06T07:15:26.050Z,72.71
2023-03-06T07:17:56.782Z,72.53
2023-03-06T07:20:28.366Z,72.52
2023-03-06T07:22:59.067Z,72.42
2023-03-06T07:25:29.894Z,72.33
2023-03-06T07:28:00.704Z,72.22
2023-03-06T07:30:32.693Z,71.71
2023-03-06T07:33:03.416Z,71.88
2023-03-06T07:35:34.431Z,71.56
2023-03-06T07:38:05.396Z,71.33
2023-03-06T07:40:36.080Z,71.19
2023-03-06T07:43:18.617Z,71.15
2023-03-06T07:45:57.596Z,71.31
2023-03-06T07:48:28.735Z,71.57
2023-03-06T07:51:01.726Z,71.49
2023-03-06T07:53:33.044Z,71.68
2023-03-06T07:56:05.592Z,71.57
2023-03-06T07:58:36.865Z,71.40
2023-03-06T08:01:09.689Z,71.18
2023-03-06T08:03:40.530Z,70.61
2023-03-06T08:06:13.882Z,70.70
2023-03-06T08:08:46.187Z,71.10
2023-03-06T08:11:19.560Z,70.80
2023-03-06T08:13:50.980Z,70.47
2023-03-06T08:16:23.777Z,70.85
2023-03-06T08:18:54.873Z,71.13
2023-03-06T08:21:24.856Z,70.86
2023-03-06T08:23:55.919Z,70.68
2023-03-06T08:26:27.285Z,70.71
2023-03-06T08:29:00.371Z,70.97
2023-03-06T08:31:35.266Z,71.28
2023-03-06T08:34:07.333Z,71.33
2023-03-06T08:36:40.504Z,71.38
2023-03-06T08:39:11.776Z,71.12
2023-03-06T08:41:43.098Z,71.04
2023-03-06T08:44:13.989Z,71.19
2023-03-06T08:46:44.733Z,71.02
2023-03-06T08:49:15.785Z,70.96
2023-03-06T08:51:46.444Z,70.55
2023-03-06T08:54:17.232Z,70.41
2023-03-06T08:56:48.012Z,70.34
2023-03-06T08:59:18.760Z,70.10
2023-03-06T09:01:49.720Z,69.69
2023-03-06T09:04:20.559Z,69.29
2023-03-06T09:06:51.304Z,69.13
2023-03-06T09:09:22.000Z,68.96
2023-03-06T09:11:52.629Z,68.70
2023-03-06T09:14:23.283Z,68.32
2023-03-06T09:16:54.096Z,67.42
2023-03-06T09:19:24.856Z,67.14
2023-03-06T09:21:55.575Z,66.64
2023-03-06T09:24:26.240Z,66.37
2023-03-06T09:26:56.978Z,65.37
2023-03-06T09:29:28.245Z,65.34
2023-03-06T09:31:59.013Z,65.74
2023-03-06T09:34:29.719Z,65.88
2023-03-06T09:37:01.561Z,65.99
2023-03-06T09:39:32.286Z,65.25
2023-03-06T09:42:03.549Z,65.12
2023-03-06T09:44:34.430Z,65.17
2023-03-06T09:47:38.375Z,65.36
2023-03-06T09:50:18.577Z,65.11
2023-03-06T09:53:03.470Z,65.23
2023-03-06T09:55:36.164Z,64.87
2023-03-06T09:58:15.695Z,64.72
2023-03-06T10:00:55.439Z,64.16
2023-03-06T10:03:31.147Z,64.38
2023-03-06T10:06:09.419Z,64.36
2023-03-06T10:08:51.531Z,64.37
2023-03-06T10:11:29.058Z,64.01
2023-03-06T10:14:13.991Z,63.25
2023-03-06T10:16:44.718Z,63.63
2023-03-06T10:19:18.145Z,63.51
2023-03-06T10:21:58.265Z,63.11
2023-03-06T10:24:46.930Z,63.04
2023-03-06T10:27:38.430Z,62.76
2023-03-06T10:30:32.640Z,63.01
2023-03-06T10:33:08.923Z,62.83
2023-03-06T10:35:48.223Z,62.43
2023-03-06T10:38:23.141Z,62.80
2023-03-06T10:41:06.224Z,62.82
2023-03-06T10:43:38.322Z,63.01
2023-03-06T10:46:10.864Z,62.53
2023-03-06T10:48:43.662Z,62.51
2023-03-06T10:51:19.928Z,62.91
2023-03-06T10:53:53.336Z,62.00
2023-03-06T10:56:32.887Z,62.06
2023-03-06T10:59:15.028Z,62.40
2023-03-06T11:01:47.187Z,62.10
2023-03-06T11:04:29.426Z,63.15
2023-03-06T11:07:16.428Z,63.27
2023-03-06T11:10:01.372Z,63.55
2023-03-06T11:12:33.367Z,63.81
2023-03-06T11:15:19.679Z,63.52
2023-03-06T11:18:00.269Z,63.73
2023-03-06T11:20:49.995Z,63.86
2023-03-06T11:23:29.123Z,63.42
2023-03-06T11:26:05.213Z,63.28
2023-03-06T11:28:42.173Z,63.58
2023-03-06T11:31:16.436Z,63.99
2023-03-06T11:33:52.631Z,64.25
2023-03-06T11:36:30.220Z,64.15
2023-03-06T11:39:02.991Z,63.74
2023-03-06T11:41:40.461Z,64.19
2023-03-06T11:44:18.038Z,64.33
2023-03-06T11:47:03.289Z,63.92
2023-03-06T11:49:43.640Z,64.27
2023-03-06T11:52:23.578Z,64.27
2023-03-06T11:54:56.394Z,64.42
2023-03-06T11:57:35.114Z,64.27
2023-03-06T12:00:19.525Z,64.33
2023-03-06T12:03:12.592Z,64.64
2023-03-06T12:05:50.559Z,64.69
2023-03-06T12:08:46.425Z,65.10
2023-03-06T12:11:23.832Z,65.32
2023-03-06T12:14:10.972Z,65.19
2023-03-06T12:16:53.168Z,65.07
2023-03-06T12:19:37.917Z,65.09
2023-03-06T12:22:31.529Z,64.69
2023-03-06T12:25:22.801Z,64.79
2023-03-06T12:27:54.252Z,65.08
2023-03-06T12:30:40.007Z,65.10
2023-03-06T12:33:22.698Z,65.13
2023-03-06T12:36:16.639Z,64.87
2023-03-06T12:39:09.799Z,65.12
2023-03-06T12:41:54.517Z,65.11
2023-03-06T12:44:51.738Z,64.48
2023-03-06T12:47:26.776Z,64.12
2023-03-06T12:50:00.978Z,63.24
2023-03-06T12:52:33.853Z,61.65
2023-03-06T12:55:08.308Z,62.51
2023-03-06T12:57:38.960Z,63.01
2023-03-06T13:00:43.811Z,63.24
2023-03-06T13:03:21.490Z,63.63
2023-03-06T13:06:12.335Z,63.59
2023-03-06T13:09:14.086Z,63.81
2023-03-06T13:12:02.967Z,63.89
2023-03-06T13:14:56.479Z,63.79
2023-03-06T13:17:36.048Z,63.67
2023-03-06T13:20:29.380Z,63.92
2023-03-06T13:23:20.138Z,63.86
2023-03-06T13:25:51.722Z,63.59
2023-03-06T13:28:38.886Z,63.87
2023-03-06T13:31:21.364Z,63.81
2023-03-06T13:33:59.609Z,63.75
2023-03-06T13:36:33.006Z,63.82
2023-03-06T13:39:12.543Z,63.76
2023-03-06T13:41:58.082Z,63.63
2023-03-06T13:44:49.165Z,63.63
2023-03-06T13:47:32.459Z,63.38
2023-03-06T13:50:17.459Z,64.23
2023-03-06T13:53:01.220Z,63.48
2023-03-06T13:55:44.385Z,63.52
2023-03-06T13:58:32.133Z,63.67
2023-03-06T14:01:31.151Z,63.99
2023-03-06T14:04:36.598Z,63.87
2023-03-06T14:07:21.797Z,64.29
2023-03-06T14:10:01.148Z,64.69
2023-03-06T14:12:35.130Z,64.71
2023-03-06T14:15:17.284Z,64.76
2023-03-06T14:17:57.264Z,64.45
2023-03-06T14:20:35.264Z,64.19
2023-03-06T14:23:25.762Z,63.86
2023-03-06T14:26:08.261Z,63.62
2023-03-06T14:28:38.945Z,63.67
2023-03-06T14:31:16.483Z,63.42
2023-03-06T14:33:53.764Z,63.44
2023-03-06T14:36:28.381Z,63.67
2023-03-06T14:39:02.597Z,63.72
2023-03-06T14:41:35.216Z,63.62
2023-03-06T14:44:17.524Z,63.85
2023-03-06T14:46:50.015Z,64.05
2023-03-06T14:49:22.228Z,64.15
2023-03-06T14:51:54.624Z,64.05
2023-03-06T14:54:29.060Z,64.13
2023-03-06T14:57:04.849Z,64.32
2023-03-06T14:59:41.704Z,64.39
2023-03-06T15:02:17.601Z,64.52
2023-03-06T15:04:51.253Z,64.68
2023-03-06T15:07:27.629Z,64.63
2023-03-06T15:09:59.705Z,64.66
2023-03-06T15:12:38.063Z,64.89
2023-03-06T15:18:28.152Z,63.90
2023-03-06T15:21:09.246Z,64.10
2023-03-06T15:23:42.934Z,64.40
2023-03-06T15:26:29.584Z,64.30
2023-03-06T15:29:09.202Z,64.19
2023-03-06T15:31:41.908Z,64.42
2023-03-06T15:34:21.697Z,64.76
2023-03-06T15:36:54.537Z,64.90
2023-03-06T15:39:36.636Z,64.90
2023-03-06T15:42:18.324Z,64.73
2023-03-06T15:44:53.692Z,64.79
2023-03-06T15:47:24.658Z,64.75
2023-03-06T15:49:55.399Z,64.80
2023-03-06T15:52:26.044Z,65.11
2023-03-06T15:54:56.783Z,64.94
2023-03-06T15:57:28.420Z,64.96
2023-03-06T15:59:59.752Z,65.22
2023-03-06T16:02:30.409Z,64.93
2023-03-06T16:05:01.439Z,64.81
2023-03-06T16:07:32.536Z,64.81
2023-03-06T16:10:01.720Z,64.91
2023-03-06T16:12:32.439Z,64.84
2023-03-06T16:15:03.375Z,64.91
2023-03-06T16:17:34.026Z,64.93
2023-03-06T16:20:14.914Z,64.94
2023-03-06T16:22:46.868Z,65.05
2023-03-06T16:25:18.742Z,65.24
2023-03-06T16:27:52.019Z,65.39
2023-03-06T16:30:34.392Z,65.79
2023-03-06T16:33:06.021Z,65.76
2023-03-06T16:35:36.732Z,65.81
2023-03-06T16:38:07.616Z,66.03
2023-03-06T16:40:39.266Z,66.17
2023-03-06T16:43:10.850Z,66.25
2023-03-06T16:45:42.692Z,66.27
2023-03-06T16:48:16.661Z,66.51
2023-03-06T16:50:47.564Z,66.65
2023-03-06T16:53:18.782Z,66.98
2023-03-06T16:55:49.504Z,67.12
2023-03-06T16:58:20.234Z,67.16
2023-03-06T17:00:51.188Z,67.45
2023-03-06T17:03:21.822Z,67.51
2023-03-06T17:05:52.501Z,67.68
2023-03-06T17:08:23.298Z,67.73
2023-03-06T17:10:53.986Z,67.92
2023-03-06T17:13:24.892Z,68.05
2023-03-06T17:15:56.120Z,68.07
2023-03-06T17:18:27.810Z,68.14
2023-03-06T17:20:59.139Z,68.21
2023-03-06T17:23:28.912Z,68.24
2023-03-06T17:26:08.331Z,68.26
2023-03-06T17:28:39.609Z,68.42
2023-03-06T17:31:15.851Z,68.55
2023-03-06T17:33:47.133Z,68.59
2023-03-06T17:36:18.294Z,68.61
2023-03-06T17:38:47.411Z,68.66
2023-03-06T17:41:18.223Z,68.68
2023-03-06T17:43:49.257Z,68.79
2023-03-06T17:46:18.574Z,68.87
2023-03-06T17:48:49.378Z,69.20
2023-03-06T17:51:20.087Z,69.20
2023-03-06T17:53:50.738Z,69.18
2023-03-06T17:56:21.721Z,69.23
2023-03-06T17:58:52.441Z,69.32
2023-03-06T18:01:24.630Z,69.26
2023-03-06T18:03:55.683Z,69.46
2023-03-06T18:06:25.192Z,69.48
2023-03-06T18:08:56.229Z,69.52
2023-03-06T18:11:25.951Z,69.50
2023-03-06T18:13:56.620Z,69.67
2023-03-06T18:16:28.869Z,69.70
2023-03-06T18:18:59.625Z,69.68
2023-03-06T18:21:30.576Z,69.71
2023-03-06T18:24:01.330Z,69.76
2023-03-06T18:26:32.735Z,69.74
2023-03-06T18:29:04.671Z,69.56
2023-03-06T18:31:37.580Z,69.71
2023-03-06T18:34:11.208Z,69.78
2023-03-06T18:36:42.414Z,69.94
2023-03-06T18:39:14.124Z,70.02
2023-03-06T18:41:44.976Z,69.97
2023-03-06T18:44:16.382Z,70.08
2023-03-06T18:46:47.158Z,70.11
2023-03-06T18:49:18.299Z,70.08
2023-03-06T18:51:51.285Z,69.95
2023-03-06T18:54:22.246Z,69.95
2023-03-06T18:56:51.750Z,69.97
2023-03-06T18:59:22.691Z,70.07
2023-03-06T19:01:53.703Z,70.09
2023-03-06T19:04:23.157Z,69.97
2023-03-06T19:06:54.279Z,70.10
2023-03-06T19:09:24.905Z,70.27
2023-03-06T19:11:57.301Z,70.04
2023-03-06T19:14:28.646Z,70.03
2023-03-06T19:16:59.429Z,69.95
2023-03-06T19:19:30.167Z,69.92
2023-03-06T19:22:01.482Z,69.98
2023-03-06T19:24:32.477Z,70.18
2023-03-06T19:27:03.204Z,70.34
2023-03-06T19:29:33.861Z,70.43
2023-03-06T19:32:05.089Z,70.44
2023-03-06T19:34:35.811Z,70.16
2023-03-06T19:37:06.493Z,70.30
2023-03-06T19:39:37.167Z,70.30
2023-03-06T19:42:07.989Z,70.27
2023-03-06T19:44:38.733Z,70.58
2023-03-06T19:47:09.620Z,70.78
2023-03-06T19:49:40.718Z,70.48
2023-03-06T19:52:09.829Z,70.31
2023-03-06T19:54:41.023Z,70.35
2023-03-06T19:57:10.178Z,70.49
2023-03-06T19:59:40.880Z,70.32
2023-03-06T20:02:12.915Z,70.51
2023-03-06T20:04:43.953Z,70.59
2023-03-06T20:07:13.128Z,70.42
2023-03-06T20:09:44.013Z,70.34
2023-03-06T20:12:15.116Z,70.52
2023-03-06T20:14:45.861Z,70.31
2023-03-06T20:17:16.764Z,70.44
2023-03-06T20:19:46.581Z,70.54
2023-03-06T20:22:17.339Z,70.61
2023-03-06T20:24:48.120Z,70.40
2023-03-06T20:27:18.879Z,70.38
2023-03-06T20:29:49.811Z,70.66
2023-03-06T20:32:20.493Z,70.73
2023-03-06T20:34:51.185Z,70.59
2023-03-06T20:37:21.890Z,70.54
2023-03-06T20:39:52.996Z,70.71
2023-03-06T20:42:22.117Z,70.41
2023-03-06T20:44:53.051Z,70.39
2023-03-06T20:47:23.806Z,70.31
2023-03-06T20:49:54.562Z,70.24
2023-03-06T20:52:25.175Z,70.17
2023-03-06T20:54:55.835Z,70.24
2023-03-06T20:57:26.529Z,69.93
2023-03-06T20:59:57.141Z,70.13
2023-03-06T21:02:27.864Z,70.15
2023-03-06T21:04:58.635Z,70.21
2023-03-06T21:07:29.379Z,70.32
2023-03-06T21:10:00.317Z,70.24
2023-03-06T21:12:30.993Z,70.35
2023-03-06T21:15:01.679Z,70.46
2023-03-06T21:17:32.385Z,70.86
2023-03-06T21:20:03.248Z,70.87
2023-03-06T21:22:33.911Z,70.95
2023-03-06T21:25:05.319Z,71.06
2023-03-06T21:27:36.057Z,70.92
2023-03-06T21:30:09.041Z,70.80
2023-03-06T21:32:40.065Z,70.74
2023-03-06T21:35:10.814Z,70.65
2023-03-06T21:37:41.564Z,70.65
2023-03-06T21:40:14.777Z,70.77
2023-03-06T21:42:45.491Z,70.61
2023-03-06T21:45:16.734Z,70.44
2023-03-06T21:47:49.276Z,70.43
2023-03-06T21:50:20.210Z,70.49
2023-03-06T21:52:50.948Z,70.63
2023-03-06T21:55:23.003Z,70.42
2023-03-06T21:57:54.952Z,70.29
2023-03-06T22:00:25.859Z,70.30
2023-03-06T22:02:56.591Z,70.38
2023-03-06T22:05:27.255Z,70.45
2023-03-06T22:07:58.008Z,70.29
2023-03-06T22:10:29.079Z,70.51
2023-03-06T22:12:58.344Z,70.73
2023-03-06T22:15:29.005Z,70.78
2023-03-06T22:17:59.716Z,70.66
2023-03-06T22:20:30.452Z,70.69
2023-03-06T22:23:01.110Z,70.44
2023-03-06T22:25:33.802Z,70.63
2023-03-06T22:28:04.503Z,70.95
2023-03-06T22:30:35.207Z,71.14
2023-03-06T22:33:06.064Z,71.06
2023-03-06T22:35:36.832Z,70.76
2023-03-06T22:38:07.499Z,71.09
2023-03-06T22:40:38.361Z,71.29
2023-03-06T22:43:09.025Z,71.16
2023-03-06T22:45:39.646Z,71.12
2023-03-06T22:48:11.387Z,71.14
2023-03-06T22:50:42.077Z,71.19
2023-03-06T22:53:12.771Z,70.94
2023-03-06T22:55:43.525Z,70.79
2023-03-06T22:58:14.174Z,70.68
2023-03-06T23:00:44.879Z,70.60
2023-03-06T23:03:15.569Z,71.09
2023-03-06T23:05:46.188Z,70.79
2023-03-06T23:08:16.886Z,70.95
2023-03-06T23:10:47.585Z,71.19
2023-03-06T23:13:18.215Z,71.02
2023-03-06T23:15:48.978Z,71.08
2023-03-06T23:18:19.712Z,70.94
2023-03-06T23:20:50.363Z,71.07
2023-03-06T23:23:21.439Z,71.08
2023-03-06T23:25:50.508Z,71.10
2023-03-06T23:28:21.545Z,71.21
2023-03-06T23:30:50.732Z,70.88
2023-03-06T23:33:21.447Z,71.04
2023-03-06T23:35:55.527Z,71.25
2023-03-06T23:38:26.231Z,71.53
2023-03-06T23:41:01.017Z,71.25
2023-03-06T23:43:31.974Z,71.35
2023-03-06T23:46:02.706Z,71.14
2023-03-06T23:48:33.805Z,71.11
2023-03-06T23:51:06.131Z,71.36
2023-03-06T23:53:37.189Z,71.33
2023-03-06T23:56:06.790Z,71.25
2023-03-06T23:58:37.624Z,71.14
